sensor_id;sensor_type;location;lat;lon;timestamp;P1;durP1;ratioP1;P2;durP2;ratioP2
57567;SDS011;43403;51.948;5.922;2023-06-22T00:00:58;6.05;;;4.20;;
57567;SDS011;43403;51.948;5.922;2023-06-22T00:03:25;6.53;;;4.03;;
57567;SDS011;43403;51.948;5.922;2023-06-22T00:05:52;5.40;;;3.90;;
57567;SDS011;43403;51.948;5.922;2023-06-22T00:08:19;6.53;;;3.85;;
57567;SDS011;43403;51.948;5.922;2023-06-22T00:10:46;5.47;;;3.58;;
57567;SDS011;43403;51.948;5.922;2023-06-22T00:13:13;7.35;;;3.47;;
57567;SDS011;43403;51.948;5.922;2023-06-22T00:15:40;7.80;;;3.50;;
57567;SDS011;43403;51.948;5.922;2023-06-22T00:18:08;5.15;;;3.40;;
57567;SDS011;43403;51.948;5.922;2023-06-22T00:20:36;4.47;;;3.17;;
57567;SDS011;43403;51.948;5.922;2023-06-22T00:23:04;7.05;;;3.47;;
57567;SDS011;43403;51.948;5.922;2023-06-22T00:25:35;6.03;;;3.47;;
57567;SDS011;43403;51.948;5.922;2023-06-22T00:28:02;4.28;;;3.00;;
57567;SDS011;43403;51.948;5.922;2023-06-22T00:30:30;4.47;;;3.05;;
57567;SDS011;43403;51.948;5.922;2023-06-22T00:32:58;6.13;;;2.80;;
57567;SDS011;43403;51.948;5.922;2023-06-22T00:35:25;5.43;;;3.53;;
57567;SDS011;43403;51.948;5.922;2023-06-22T00:37:56;5.63;;;3.20;;
57567;SDS011;43403;51.948;5.922;2023-06-22T00:40:31;7.60;;;4.22;;
57567;SDS011;43403;51.948;5.922;2023-06-22T00:42:59;5.20;;;3.70;;
57567;SDS011;43403;51.948;5.922;2023-06-22T00:45:26;5.45;;;3.85;;
57567;SDS011;43403;51.948;5.922;2023-06-22T00:47:53;4.60;;;3.60;;
57567;SDS011;43403;51.948;5.922;2023-06-22T00:50:22;6.68;;;4.00;;
57567;SDS011;43403;51.948;5.922;2023-06-22T00:52:53;8.73;;;4.40;;
57567;SDS011;43403;51.948;5.922;2023-06-22T00:55:24;8.45;;;4.22;;
57567;SDS011;43403;51.948;5.922;2023-06-22T00:57:54;8.60;;;4.63;;
57567;SDS011;43403;51.948;5.922;2023-06-22T01:00:22;10.38;;;4.70;;
57567;SDS011;43403;51.948;5.922;2023-06-22T01:02:51;7.97;;;4.43;;
57567;SDS011;43403;51.948;5.922;2023-06-22T01:05:19;7.18;;;3.88;;
57567;SDS011;43403;51.948;5.922;2023-06-22T01:08:05;6.70;;;4.30;;
57567;SDS011;43403;51.948;5.922;2023-06-22T01:10:43;6.03;;;4.38;;
57567;SDS011;43403;51.948;5.922;2023-06-22T01:15:59;8.18;;;4.30;;
57567;SDS011;43403;51.948;5.922;2023-06-22T01:18:35;6.45;;;4.15;;
57567;SDS011;43403;51.948;5.922;2023-06-22T01:21:05;9.15;;;4.70;;
57567;SDS011;43403;51.948;5.922;2023-06-22T01:28:49;7.97;;;4.18;;
57567;SDS011;43403;51.948;5.922;2023-06-22T01:31:18;5.05;;;3.70;;
57567;SDS011;43403;51.948;5.922;2023-06-22T01:33:55;5.70;;;3.88;;
57567;SDS011;43403;51.948;5.922;2023-06-22T01:36:25;5.20;;;3.58;;
57567;SDS011;43403;51.948;5.922;2023-06-22T01:38:53;8.60;;;4.20;;
57567;SDS011;43403;51.948;5.922;2023-06-22T01:41:20;7.97;;;3.97;;
57567;SDS011;43403;51.948;5.922;2023-06-22T01:46:14;7.13;;;3.92;;
57567;SDS011;43403;51.948;5.922;2023-06-22T01:48:41;6.57;;;4.05;;
57567;SDS011;43403;51.948;5.922;2023-06-22T01:51:08;5.00;;;3.67;;
57567;SDS011;43403;51.948;5.922;2023-06-22T01:53:35;5.85;;;3.58;;
57567;SDS011;43403;51.948;5.922;2023-06-22T01:56:02;6.35;;;3.72;;
57567;SDS011;43403;51.948;5.922;2023-06-22T01:58:30;7.30;;;3.88;;
57567;SDS011;43403;51.948;5.922;2023-06-22T02:03:29;8.40;;;4.40;;
57567;SDS011;43403;51.948;5.922;2023-06-22T02:06:05;7.25;;;4.28;;
57567;SDS011;43403;51.948;5.922;2023-06-22T02:08:38;7.63;;;3.67;;
57567;SDS011;43403;51.948;5.922;2023-06-22T02:11:09;8.55;;;4.07;;
57567;SDS011;43403;51.948;5.922;2023-06-22T02:13:39;5.82;;;3.53;;
57567;SDS011;43403;51.948;5.922;2023-06-22T02:16:10;6.55;;;4.07;;
57567;SDS011;43403;51.948;5.922;2023-06-22T02:18:38;6.45;;;3.88;;
57567;SDS011;43403;51.948;5.922;2023-06-22T02:21:06;7.13;;;4.32;;
57567;SDS011;43403;51.948;5.922;2023-06-22T02:23:33;7.15;;;3.88;;
57567;SDS011;43403;51.948;5.922;2023-06-22T02:26:02;5.20;;;3.38;;
57567;SDS011;43403;51.948;5.922;2023-06-22T02:28:29;7.00;;;3.85;;
57567;SDS011;43403;51.948;5.922;2023-06-22T02:30:56;6.05;;;3.50;;
57567;SDS011;43403;51.948;5.922;2023-06-22T02:33:22;5.07;;;3.50;;
57567;SDS011;43403;51.948;5.922;2023-06-22T02:35:49;6.90;;;3.85;;
57567;SDS011;43403;51.948;5.922;2023-06-22T02:38:16;4.85;;;3.78;;
57567;SDS011;43403;51.948;5.922;2023-06-22T02:40:43;7.47;;;4.60;;
57567;SDS011;43403;51.948;5.922;2023-06-22T02:43:10;5.90;;;3.47;;
57567;SDS011;43403;51.948;5.922;2023-06-22T02:45:37;7.00;;;4.10;;
57567;SDS011;43403;51.948;5.922;2023-06-22T02:48:03;6.38;;;4.07;;
57567;SDS011;43403;51.948;5.922;2023-06-22T02:50:30;5.53;;;3.95;;
57567;SDS011;43403;51.948;5.922;2023-06-22T02:52:57;4.88;;;3.53;;
57567;SDS011;43403;51.948;5.922;2023-06-22T02:55:24;6.22;;;3.83;;
57567;SDS011;43403;51.948;5.922;2023-06-22T02:57:54;7.35;;;4.22;;
57567;SDS011;43403;51.948;5.922;2023-06-22T03:00:21;6.88;;;3.90;;
57567;SDS011;43403;51.948;5.922;2023-06-22T03:02:48;7.78;;;4.20;;
57567;SDS011;43403;51.948;5.922;2023-06-22T03:10:11;7.90;;;4.65;;
57567;SDS011;43403;51.948;5.922;2023-06-22T03:12:39;8.35;;;4.25;;
57567;SDS011;43403;51.948;5.922;2023-06-22T03:15:06;7.90;;;4.82;;
57567;SDS011;43403;51.948;5.922;2023-06-22T03:17:34;6.47;;;4.45;;
57567;SDS011;43403;51.948;5.922;2023-06-22T03:20:02;6.43;;;3.85;;
57567;SDS011;43403;51.948;5.922;2023-06-22T03:22:37;8.27;;;4.50;;
57567;SDS011;43403;51.948;5.922;2023-06-22T03:25:04;8.48;;;4.68;;
57567;SDS011;43403;51.948;5.922;2023-06-22T03:27:36;8.38;;;4.38;;
57567;SDS011;43403;51.948;5.922;2023-06-22T03:30:03;6.80;;;4.60;;
57567;SDS011;43403;51.948;5.922;2023-06-22T03:32:30;9.27;;;5.90;;
57567;SDS011;43403;51.948;5.922;2023-06-22T03:34:57;9.38;;;5.70;;
57567;SDS011;43403;51.948;5.922;2023-06-22T03:37:25;7.70;;;5.28;;
57567;SDS011;43403;51.948;5.922;2023-06-22T03:39:52;8.50;;;5.53;;
57567;SDS011;43403;51.948;5.922;2023-06-22T03:42:19;9.23;;;5.95;;
57567;SDS011;43403;51.948;5.922;2023-06-22T03:44:46;9.07;;;5.82;;
57567;SDS011;43403;51.948;5.922;2023-06-22T03:47:13;10.77;;;7.30;;
57567;SDS011;43403;51.948;5.922;2023-06-22T03:49:39;9.95;;;7.38;;
57567;SDS011;43403;51.948;5.922;2023-06-22T03:52:06;12.88;;;8.40;;
57567;SDS011;43403;51.948;5.922;2023-06-22T03:54:33;11.45;;;8.57;;
57567;SDS011;43403;51.948;5.922;2023-06-22T03:56:59;18.23;;;9.75;;
57567;SDS011;43403;51.948;5.922;2023-06-22T03:59:26;14.13;;;9.10;;
57567;SDS011;43403;51.948;5.922;2023-06-22T04:01:52;13.63;;;9.90;;
57567;SDS011;43403;51.948;5.922;2023-06-22T04:04:19;14.88;;;10.65;;
57567;SDS011;43403;51.948;5.922;2023-06-22T04:06:46;14.25;;;10.77;;
57567;SDS011;43403;51.948;5.922;2023-06-22T04:09:12;14.25;;;10.63;;
57567;SDS011;43403;51.948;5.922;2023-06-22T04:11:39;19.92;;;12.23;;
57567;SDS011;43403;51.948;5.922;2023-06-22T04:14:06;16.27;;;12.00;;
57567;SDS011;43403;51.948;5.922;2023-06-22T04:16:32;17.42;;;12.20;;
57567;SDS011;43403;51.948;5.922;2023-06-22T04:18:59;19.50;;;13.18;;
57567;SDS011;43403;51.948;5.922;2023-06-22T04:21:26;18.23;;;12.70;;
57567;SDS011;43403;51.948;5.922;2023-06-22T04:23:53;19.63;;;13.25;;
57567;SDS011;43403;51.948;5.922;2023-06-22T04:26:19;17.90;;;12.63;;
57567;SDS011;43403;51.948;5.922;2023-06-22T04:28:47;20.17;;;14.57;;
57567;SDS011;43403;51.948;5.922;2023-06-22T04:31:18;18.08;;;14.35;;
57567;SDS011;43403;51.948;5.922;2023-06-22T04:33:45;17.13;;;13.88;;
57567;SDS011;43403;51.948;5.922;2023-06-22T04:36:11;18.42;;;14.25;;
57567;SDS011;43403;51.948;5.922;2023-06-22T04:38:41;19.90;;;15.65;;
57567;SDS011;43403;51.948;5.922;2023-06-22T04:41:08;17.47;;;15.60;;
57567;SDS011;43403;51.948;5.922;2023-06-22T04:43:40;22.17;;;17.15;;
57567;SDS011;43403;51.948;5.922;2023-06-22T04:46:07;24.33;;;18.33;;
57567;SDS011;43403;51.948;5.922;2023-06-22T04:48:33;20.52;;;16.92;;
57567;SDS011;43403;51.948;5.922;2023-06-22T04:51:01;21.25;;;17.60;;
57567;SDS011;43403;51.948;5.922;2023-06-22T04:53:30;20.85;;;18.38;;
57567;SDS011;43403;51.948;5.922;2023-06-22T04:55:58;20.98;;;17.40;;
57567;SDS011;43403;51.948;5.922;2023-06-22T04:58:24;24.40;;;18.23;;
57567;SDS011;43403;51.948;5.922;2023-06-22T05:00:53;22.65;;;18.92;;
57567;SDS011;43403;51.948;5.922;2023-06-22T05:03:19;22.73;;;18.05;;
57567;SDS011;43403;51.948;5.922;2023-06-22T05:05:46;25.02;;;19.10;;
57567;SDS011;43403;51.948;5.922;2023-06-22T05:08:13;22.27;;;17.52;;
57567;SDS011;43403;51.948;5.922;2023-06-22T05:10:40;22.55;;;19.15;;
57567;SDS011;43403;51.948;5.922;2023-06-22T05:13:26;21.42;;;17.55;;
57567;SDS011;43403;51.948;5.922;2023-06-22T05:15:53;21.17;;;18.00;;
57567;SDS011;43403;51.948;5.922;2023-06-22T05:18:28;22.05;;;17.92;;
57567;SDS011;43403;51.948;5.922;2023-06-22T05:23:22;21.90;;;17.13;;
57567;SDS011;43403;51.948;5.922;2023-06-22T05:25:49;20.15;;;16.88;;
57567;SDS011;43403;51.948;5.922;2023-06-22T05:28:15;23.40;;;19.08;;
57567;SDS011;43403;51.948;5.922;2023-06-22T05:30:41;23.77;;;16.15;;
57567;SDS011;43403;51.948;5.922;2023-06-22T05:33:08;20.58;;;16.33;;
57567;SDS011;43403;51.948;5.922;2023-06-22T05:35:35;20.10;;;16.10;;
57567;SDS011;43403;51.948;5.922;2023-06-22T05:38:01;19.58;;;15.93;;
57567;SDS011;43403;51.948;5.922;2023-06-22T05:40:28;22.10;;;16.75;;
57567;SDS011;43403;51.948;5.922;2023-06-22T05:42:55;20.80;;;15.80;;
57567;SDS011;43403;51.948;5.922;2023-06-22T05:45:21;20.65;;;16.35;;
57567;SDS011;43403;51.948;5.922;2023-06-22T05:47:48;21.00;;;16.73;;
57567;SDS011;43403;51.948;5.922;2023-06-22T05:50:14;20.88;;;16.10;;
57567;SDS011;43403;51.948;5.922;2023-06-22T05:52:41;21.58;;;15.60;;
57567;SDS011;43403;51.948;5.922;2023-06-22T05:55:08;17.70;;;15.60;;
57567;SDS011;43403;51.948;5.922;2023-06-22T05:57:34;18.38;;;14.23;;
57567;SDS011;43403;51.948;5.922;2023-06-22T06:00:01;17.92;;;14.73;;
57567;SDS011;43403;51.948;5.922;2023-06-22T06:02:29;18.33;;;14.05;;
57567;SDS011;43403;51.948;5.922;2023-06-22T06:04:55;17.88;;;13.60;;
57567;SDS011;43403;51.948;5.922;2023-06-22T06:07:22;19.73;;;15.02;;
57567;SDS011;43403;51.948;5.922;2023-06-22T06:09:48;20.95;;;15.50;;
57567;SDS011;43403;51.948;5.922;2023-06-22T06:12:15;19.33;;;15.88;;
57567;SDS011;43403;51.948;5.922;2023-06-22T06:14:41;16.10;;;11.80;;
57567;SDS011;43403;51.948;5.922;2023-06-22T06:17:08;14.95;;;11.40;;
57567;SDS011;43403;51.948;5.922;2023-06-22T06:19:34;18.70;;;15.63;;
57567;SDS011;43403;51.948;5.922;2023-06-22T06:22:01;17.95;;;15.48;;
57567;SDS011;43403;51.948;5.922;2023-06-22T06:24:27;23.75;;;17.48;;
57567;SDS011;43403;51.948;5.922;2023-06-22T06:26:54;19.50;;;15.85;;
57567;SDS011;43403;51.948;5.922;2023-06-22T06:29:21;18.60;;;16.52;;
57567;SDS011;43403;51.948;5.922;2023-06-22T06:31:49;18.80;;;16.52;;
57567;SDS011;43403;51.948;5.922;2023-06-22T06:34:19;18.23;;;15.15;;
57567;SDS011;43403;51.948;5.922;2023-06-22T06:36:46;20.40;;;16.15;;
57567;SDS011;43403;51.948;5.922;2023-06-22T06:39:13;21.85;;;17.02;;
57567;SDS011;43403;51.948;5.922;2023-06-22T06:41:39;16.35;;;14.25;;
57567;SDS011;43403;51.948;5.922;2023-06-22T06:44:06;20.67;;;16.58;;
57567;SDS011;43403;51.948;5.922;2023-06-22T06:46:32;19.10;;;13.77;;
57567;SDS011;43403;51.948;5.922;2023-06-22T06:48:59;14.60;;;12.13;;
57567;SDS011;43403;51.948;5.922;2023-06-22T06:51:25;19.58;;;16.95;;
57567;SDS011;43403;51.948;5.922;2023-06-22T06:53:52;13.90;;;9.07;;
57567;SDS011;43403;51.948;5.922;2023-06-22T06:56:19;15.18;;;13.00;;
57567;SDS011;43403;51.948;5.922;2023-06-22T06:58:45;19.10;;;15.75;;
57567;SDS011;43403;51.948;5.922;2023-06-22T07:01:12;19.05;;;16.50;;
57567;SDS011;43403;51.948;5.922;2023-06-22T07:03:39;20.20;;;15.82;;
57567;SDS011;43403;51.948;5.922;2023-06-22T07:06:06;20.20;;;14.90;;
57567;SDS011;43403;51.948;5.922;2023-06-22T07:08:32;22.80;;;16.95;;
57567;SDS011;43403;51.948;5.922;2023-06-22T07:10:59;19.40;;;15.10;;
57567;SDS011;43403;51.948;5.922;2023-06-22T07:13:27;18.80;;;14.10;;
57567;SDS011;43403;51.948;5.922;2023-06-22T07:15:53;21.75;;;16.80;;
57567;SDS011;43403;51.948;5.922;2023-06-22T07:18:20;21.35;;;17.10;;
57567;SDS011;43403;51.948;5.922;2023-06-22T07:20:46;18.40;;;14.43;;
57567;SDS011;43403;51.948;5.922;2023-06-22T07:23:13;19.63;;;15.93;;
57567;SDS011;43403;51.948;5.922;2023-06-22T07:25:40;20.13;;;15.05;;
57567;SDS011;43403;51.948;5.922;2023-06-22T07:28:07;17.65;;;15.13;;
57567;SDS011;43403;51.948;5.922;2023-06-22T07:30:33;20.40;;;16.65;;
57567;SDS011;43403;51.948;5.922;2023-06-22T07:33:00;18.23;;;15.32;;
57567;SDS011;43403;51.948;5.922;2023-06-22T07:35:36;17.55;;;14.88;;
57567;SDS011;43403;51.948;5.922;2023-06-22T07:38:02;19.33;;;16.17;;
57567;SDS011;43403;51.948;5.922;2023-06-22T07:40:31;17.35;;;14.80;;
57567;SDS011;43403;51.948;5.922;2023-06-22T07:43:01;19.00;;;15.60;;
57567;SDS011;43403;51.948;5.922;2023-06-22T07:45:29;15.00;;;11.98;;
57567;SDS011;43403;51.948;5.922;2023-06-22T07:47:56;19.00;;;15.65;;
57567;SDS011;43403;51.948;5.922;2023-06-22T07:50:22;18.73;;;14.13;;
57567;SDS011;43403;51.948;5.922;2023-06-22T07:52:49;18.13;;;13.90;;
57567;SDS011;43403;51.948;5.922;2023-06-22T07:55:15;14.77;;;13.15;;
57567;SDS011;43403;51.948;5.922;2023-06-22T07:57:42;15.73;;;13.18;;
57567;SDS011;43403;51.948;5.922;2023-06-22T08:00:10;16.58;;;11.20;;
57567;SDS011;43403;51.948;5.922;2023-06-22T08:02:41;20.98;;;13.18;;
57567;SDS011;43403;51.948;5.922;2023-06-22T08:05:09;15.38;;;9.65;;
57567;SDS011;43403;51.948;5.922;2023-06-22T08:07:47;15.32;;;12.13;;
57567;SDS011;43403;51.948;5.922;2023-06-22T08:10:14;15.23;;;11.83;;
57567;SDS011;43403;51.948;5.922;2023-06-22T08:12:42;18.67;;;12.43;;
57567;SDS011;43403;51.948;5.922;2023-06-22T08:15:09;14.37;;;11.97;;
57567;SDS011;43403;51.948;5.922;2023-06-22T08:17:39;13.90;;;10.63;;
57567;SDS011;43403;51.948;5.922;2023-06-22T08:20:07;13.20;;;10.98;;
57567;SDS011;43403;51.948;5.922;2023-06-22T08:22:40;12.07;;;10.20;;
57567;SDS011;43403;51.948;5.922;2023-06-22T08:25:08;14.73;;;10.40;;
57567;SDS011;43403;51.948;5.922;2023-06-22T08:27:35;12.55;;;10.50;;
57567;SDS011;43403;51.948;5.922;2023-06-22T08:30:02;15.10;;;10.43;;
57567;SDS011;43403;51.948;5.922;2023-06-22T08:32:29;14.77;;;11.00;;
57567;SDS011;43403;51.948;5.922;2023-06-22T08:34:56;14.40;;;10.95;;
57567;SDS011;43403;51.948;5.922;2023-06-22T08:37:23;14.60;;;10.93;;
57567;SDS011;43403;51.948;5.922;2023-06-22T08:39:58;15.23;;;10.95;;
57567;SDS011;43403;51.948;5.922;2023-06-22T08:42:25;11.32;;;8.27;;
57567;SDS011;43403;51.948;5.922;2023-06-22T08:44:52;14.55;;;10.82;;
57567;SDS011;43403;51.948;5.922;2023-06-22T08:47:19;13.23;;;9.25;;
57567;SDS011;43403;51.948;5.922;2023-06-22T08:49:47;12.75;;;10.50;;
57567;SDS011;43403;51.948;5.922;2023-06-22T08:52:14;13.40;;;9.57;;
57567;SDS011;43403;51.948;5.922;2023-06-22T08:54:41;12.00;;;9.00;;
57567;SDS011;43403;51.948;5.922;2023-06-22T08:57:07;11.98;;;8.20;;
57567;SDS011;43403;51.948;5.922;2023-06-22T08:59:34;9.23;;;6.20;;
57567;SDS011;43403;51.948;5.922;2023-06-22T09:02:01;13.57;;;9.27;;
57567;SDS011;43403;51.948;5.922;2023-06-22T09:04:27;11.32;;;8.48;;
57567;SDS011;43403;51.948;5.922;2023-06-22T09:06:54;15.37;;;10.03;;
57567;SDS011;43403;51.948;5.922;2023-06-22T09:09:21;12.35;;;7.78;;
57567;SDS011;43403;51.948;5.922;2023-06-22T09:11:48;10.48;;;8.77;;
57567;SDS011;43403;51.948;5.922;2023-06-22T09:14:14;10.18;;;8.32;;
57567;SDS011;43403;51.948;5.922;2023-06-22T09:16:41;9.50;;;8.02;;
57567;SDS011;43403;51.948;5.922;2023-06-22T09:19:08;13.02;;;8.85;;
57567;SDS011;43403;51.948;5.922;2023-06-22T09:21:34;10.30;;;6.75;;
57567;SDS011;43403;51.948;5.922;2023-06-22T09:24:01;9.60;;;7.20;;
57567;SDS011;43403;51.948;5.922;2023-06-22T09:26:27;9.38;;;7.85;;
57567;SDS011;43403;51.948;5.922;2023-06-22T09:28:54;8.68;;;7.60;;
57567;SDS011;43403;51.948;5.922;2023-06-22T09:31:21;11.05;;;7.78;;
57567;SDS011;43403;51.948;5.922;2023-06-22T09:33:55;11.00;;;8.25;;
57567;SDS011;43403;51.948;5.922;2023-06-22T09:36:21;11.65;;;7.15;;
57567;SDS011;43403;51.948;5.922;2023-06-22T09:38:48;8.55;;;6.60;;
57567;SDS011;43403;51.948;5.922;2023-06-22T09:41:15;9.32;;;7.60;;
57567;SDS011;43403;51.948;5.922;2023-06-22T09:43:42;10.50;;;7.28;;
57567;SDS011;43403;51.948;5.922;2023-06-22T09:46:08;8.85;;;6.93;;
57567;SDS011;43403;51.948;5.922;2023-06-22T09:48:35;9.65;;;6.75;;
57567;SDS011;43403;51.948;5.922;2023-06-22T09:51:05;11.82;;;7.85;;
57567;SDS011;43403;51.948;5.922;2023-06-22T09:53:32;8.00;;;6.95;;
57567;SDS011;43403;51.948;5.922;2023-06-22T09:56:01;10.43;;;8.13;;
57567;SDS011;43403;51.948;5.922;2023-06-22T09:58:28;8.52;;;6.80;;
57567;SDS011;43403;51.948;5.922;2023-06-22T10:00:54;11.30;;;6.25;;
57567;SDS011;43403;51.948;5.922;2023-06-22T10:03:21;7.13;;;6.38;;
57567;SDS011;43403;51.948;5.922;2023-06-22T10:05:47;7.57;;;5.88;;
57567;SDS011;43403;51.948;5.922;2023-06-22T10:08:14;9.35;;;5.45;;
57567;SDS011;43403;51.948;5.922;2023-06-22T10:10:41;8.65;;;5.70;;
57567;SDS011;43403;51.948;5.922;2023-06-22T10:13:08;8.65;;;6.53;;
57567;SDS011;43403;51.948;5.922;2023-06-22T10:15:38;6.78;;;5.57;;
57567;SDS011;43403;51.948;5.922;2023-06-22T10:18:05;11.98;;;6.82;;
57567;SDS011;43403;51.948;5.922;2023-06-22T10:20:32;6.18;;;4.95;;
57567;SDS011;43403;51.948;5.922;2023-06-22T10:22:58;9.18;;;5.43;;
57567;SDS011;43403;51.948;5.922;2023-06-22T10:25:26;6.05;;;4.50;;
57567;SDS011;43403;51.948;5.922;2023-06-22T10:27:53;6.10;;;4.68;;
57567;SDS011;43403;51.948;5.922;2023-06-22T10:30:20;11.05;;;6.97;;
57567;SDS011;43403;51.948;5.922;2023-06-22T10:32:47;9.63;;;6.07;;
57567;SDS011;43403;51.948;5.922;2023-06-22T10:35:14;9.80;;;6.15;;
57567;SDS011;43403;51.948;5.922;2023-06-22T10:37:43;8.98;;;6.93;;
57567;SDS011;43403;51.948;5.922;2023-06-22T10:40:14;8.55;;;6.30;;
57567;SDS011;43403;51.948;5.922;2023-06-22T10:42:42;9.85;;;6.10;;
57567;SDS011;43403;51.948;5.922;2023-06-22T10:45:09;8.10;;;6.70;;
57567;SDS011;43403;51.948;5.922;2023-06-22T10:47:36;8.38;;;5.30;;
57567;SDS011;43403;51.948;5.922;2023-06-22T10:50:03;7.82;;;6.40;;
57567;SDS011;43403;51.948;5.922;2023-06-22T10:52:30;13.38;;;5.57;;
57567;SDS011;43403;51.948;5.922;2023-06-22T10:54:57;7.40;;;5.78;;
57567;SDS011;43403;51.948;5.922;2023-06-22T10:57:24;9.75;;;7.15;;
57567;SDS011;43403;51.948;5.922;2023-06-22T10:59:52;12.10;;;7.00;;
57567;SDS011;43403;51.948;5.922;2023-06-22T11:02:19;6.68;;;5.15;;
57567;SDS011;43403;51.948;5.922;2023-06-22T11:04:45;7.20;;;5.82;;
57567;SDS011;43403;51.948;5.922;2023-06-22T11:07:15;8.20;;;6.07;;
57567;SDS011;43403;51.948;5.922;2023-06-22T11:09:43;8.90;;;7.00;;
57567;SDS011;43403;51.948;5.922;2023-06-22T11:12:10;10.18;;;7.00;;
57567;SDS011;43403;51.948;5.922;2023-06-22T11:14:36;8.35;;;7.00;;
57567;SDS011;43403;51.948;5.922;2023-06-22T11:19:31;7.28;;;6.13;;
57567;SDS011;43403;51.948;5.922;2023-06-22T11:21:57;9.25;;;7.03;;
57567;SDS011;43403;51.948;5.922;2023-06-22T11:24:24;10.63;;;7.60;;
57567;SDS011;43403;51.948;5.922;2023-06-22T11:26:50;7.60;;;6.75;;
57567;SDS011;43403;51.948;5.922;2023-06-22T11:29:17;11.52;;;8.07;;
57567;SDS011;43403;51.948;5.922;2023-06-22T11:31:57;10.30;;;8.25;;
57567;SDS011;43403;51.948;5.922;2023-06-22T11:34:24;9.65;;;8.05;;
57567;SDS011;43403;51.948;5.922;2023-06-22T11:36:50;8.93;;;8.02;;
57567;SDS011;43403;51.948;5.922;2023-06-22T11:39:17;10.02;;;7.93;;
57567;SDS011;43403;51.948;5.922;2023-06-22T11:41:55;11.45;;;7.88;;
57567;SDS011;43403;51.948;5.922;2023-06-22T11:44:21;12.07;;;8.80;;
57567;SDS011;43403;51.948;5.922;2023-06-22T11:46:48;9.45;;;8.07;;
57567;SDS011;43403;51.948;5.922;2023-06-22T11:49:14;12.02;;;8.48;;
57567;SDS011;43403;51.948;5.922;2023-06-22T11:51:41;10.50;;;7.55;;
57567;SDS011;43403;51.948;5.922;2023-06-22T11:54:10;11.15;;;8.00;;
57567;SDS011;43403;51.948;5.922;2023-06-22T11:56:36;11.82;;;8.20;;
57567;SDS011;43403;51.948;5.922;2023-06-22T11:59:03;11.48;;;8.57;;
57567;SDS011;43403;51.948;5.922;2023-06-22T12:01:29;9.75;;;8.75;;
57567;SDS011;43403;51.948;5.922;2023-06-22T12:03:55;16.92;;;8.85;;
57567;SDS011;43403;51.948;5.922;2023-06-22T12:06:22;15.07;;;9.25;;
57567;SDS011;43403;51.948;5.922;2023-06-22T12:08:49;15.00;;;10.40;;
57567;SDS011;43403;51.948;5.922;2023-06-22T12:11:15;13.95;;;9.70;;
57567;SDS011;43403;51.948;5.922;2023-06-22T12:13:42;12.48;;;10.13;;
57567;SDS011;43403;51.948;5.922;2023-06-22T12:16:08;18.60;;;11.73;;
57567;SDS011;43403;51.948;5.922;2023-06-22T12:18:35;18.58;;;12.40;;
57567;SDS011;43403;51.948;5.922;2023-06-22T12:21:01;21.83;;;11.85;;
57567;SDS011;43403;51.948;5.922;2023-06-22T12:23:28;14.95;;;11.93;;
57567;SDS011;43403;51.948;5.922;2023-06-22T12:25:54;15.45;;;12.25;;
57567;SDS011;43403;51.948;5.922;2023-06-22T12:28:21;17.30;;;11.57;;
57567;SDS011;43403;51.948;5.922;2023-06-22T12:30:49;15.45;;;11.85;;
57567;SDS011;43403;51.948;5.922;2023-06-22T12:33:16;15.48;;;12.93;;
57567;SDS011;43403;51.948;5.922;2023-06-22T12:35:43;20.27;;;13.38;;
57567;SDS011;43403;51.948;5.922;2023-06-22T12:38:11;21.17;;;15.05;;
57567;SDS011;43403;51.948;5.922;2023-06-22T12:40:38;24.33;;;14.25;;
57567;SDS011;43403;51.948;5.922;2023-06-22T12:43:04;17.60;;;14.55;;
57567;SDS011;43403;51.948;5.922;2023-06-22T12:45:31;18.08;;;15.23;;
57567;SDS011;43403;51.948;5.922;2023-06-22T12:47:59;16.70;;;13.40;;
57567;SDS011;43403;51.948;5.922;2023-06-22T12:50:26;15.85;;;13.43;;
57567;SDS011;43403;51.948;5.922;2023-06-22T12:52:53;17.55;;;13.70;;
57567;SDS011;43403;51.948;5.922;2023-06-22T12:55:20;16.70;;;14.65;;
57567;SDS011;43403;51.948;5.922;2023-06-22T12:57:46;20.30;;;14.85;;
57567;SDS011;43403;51.948;5.922;2023-06-22T13:00:13;18.95;;;14.95;;
57567;SDS011;43403;51.948;5.922;2023-06-22T13:02:40;16.92;;;14.13;;
57567;SDS011;43403;51.948;5.922;2023-06-22T13:05:06;19.50;;;15.52;;
57567;SDS011;43403;51.948;5.922;2023-06-22T13:07:33;19.73;;;15.98;;
57567;SDS011;43403;51.948;5.922;2023-06-22T13:10:00;16.83;;;14.23;;
57567;SDS011;43403;51.948;5.922;2023-06-22T13:12:26;17.05;;;13.80;;
57567;SDS011;43403;51.948;5.922;2023-06-22T13:14:53;14.15;;;11.63;;
57567;SDS011;43403;51.948;5.922;2023-06-22T13:17:20;13.50;;;11.02;;
57567;SDS011;43403;51.948;5.922;2023-06-22T13:19:47;12.35;;;9.98;;
57567;SDS011;43403;51.948;5.922;2023-06-22T13:24:57;14.02;;;12.32;;
57567;SDS011;43403;51.948;5.922;2023-06-22T13:27:24;18.27;;;12.77;;
57567;SDS011;43403;51.948;5.922;2023-06-22T13:29:51;20.30;;;14.50;;
57567;SDS011;43403;51.948;5.922;2023-06-22T13:32:18;19.20;;;12.77;;
57567;SDS011;43403;51.948;5.922;2023-06-22T13:34:45;16.85;;;12.15;;
57567;SDS011;43403;51.948;5.922;2023-06-22T13:37:11;20.50;;;13.50;;
57567;SDS011;43403;51.948;5.922;2023-06-22T13:39:38;14.55;;;10.93;;
57567;SDS011;43403;51.948;5.922;2023-06-22T13:42:04;14.85;;;11.63;;
57567;SDS011;43403;51.948;5.922;2023-06-22T13:44:32;15.55;;;12.98;;
57567;SDS011;43403;51.948;5.922;2023-06-22T13:46:58;15.60;;;13.98;;
57567;SDS011;43403;51.948;5.922;2023-06-22T13:49:25;14.80;;;12.75;;
57567;SDS011;43403;51.948;5.922;2023-06-22T13:51:53;15.80;;;13.07;;
57567;SDS011;43403;51.948;5.922;2023-06-22T13:54:20;16.10;;;13.32;;
57567;SDS011;43403;51.948;5.922;2023-06-22T13:56:49;17.83;;;13.90;;
57567;SDS011;43403;51.948;5.922;2023-06-22T13:59:15;16.45;;;14.68;;
57567;SDS011;43403;51.948;5.922;2023-06-22T14:01:42;15.45;;;13.93;;
57567;SDS011;43403;51.948;5.922;2023-06-22T14:04:09;15.55;;;13.95;;
57567;SDS011;43403;51.948;5.922;2023-06-22T14:06:37;19.55;;;14.65;;
57567;SDS011;43403;51.948;5.922;2023-06-22T14:09:04;17.08;;;15.25;;
57567;SDS011;43403;51.948;5.922;2023-06-22T14:11:30;18.90;;;15.70;;
57567;SDS011;43403;51.948;5.922;2023-06-22T14:13:57;17.63;;;15.05;;
57567;SDS011;43403;51.948;5.922;2023-06-22T14:16:23;15.40;;;13.20;;
57567;SDS011;43403;51.948;5.922;2023-06-22T14:18:50;17.40;;;15.48;;
57567;SDS011;43403;51.948;5.922;2023-06-22T14:21:18;17.48;;;15.30;;
57567;SDS011;43403;51.948;5.922;2023-06-22T14:23:45;18.45;;;16.48;;
57567;SDS011;43403;51.948;5.922;2023-06-22T14:26:15;18.98;;;16.90;;
57567;SDS011;43403;51.948;5.922;2023-06-22T14:28:45;19.27;;;17.13;;
57567;SDS011;43403;51.948;5.922;2023-06-22T14:31:17;16.55;;;14.77;;
57567;SDS011;43403;51.948;5.922;2023-06-22T14:36:13;19.65;;;17.52;;
57567;SDS011;43403;51.948;5.922;2023-06-22T14:38:45;18.52;;;16.60;;
57567;SDS011;43403;51.948;5.922;2023-06-22T14:41:13;20.08;;;17.98;;
57567;SDS011;43403;51.948;5.922;2023-06-22T14:43:49;18.60;;;16.73;;
57567;SDS011;43403;51.948;5.922;2023-06-22T14:46:17;20.95;;;16.30;;
57567;SDS011;43403;51.948;5.922;2023-06-22T14:48:45;14.95;;;12.90;;
57567;SDS011;43403;51.948;5.922;2023-06-22T14:51:11;19.65;;;16.02;;
57567;SDS011;43403;51.948;5.922;2023-06-22T14:53:43;24.88;;;18.15;;
57567;SDS011;43403;51.948;5.922;2023-06-22T14:56:12;21.92;;;15.32;;
57567;SDS011;43403;51.948;5.922;2023-06-22T14:58:41;20.95;;;16.00;;
57567;SDS011;43403;51.948;5.922;2023-06-22T15:01:12;21.85;;;16.83;;
57567;SDS011;43403;51.948;5.922;2023-06-22T15:03:39;20.52;;;16.42;;